sensor_id;sensor_type;location;lat;lon;timestamp;pressure;altitude;pressure_sealevel;temperature;humidity
70072;BME280;57434;42.794;23.302;2023-04-10T00:00:36;95809.38;;;6.29;78.23
70072;BME280;57434;42.794;23.302;2023-04-10T00:01:38;95786.63;;;6.30;78.61
70072;BME280;57434;42.794;23.302;2023-04-10T00:02:40;95764.31;;;6.21;78.20
70072;BME280;57434;42.794;23.302;2023-04-10T00:03:42;95806.91;;;6.31;78.12
70072;BME280;57434;42.794;23.302;2023-04-10T00:04:44;95790.34;;;6.45;77.92
70072;BME280;57434;42.794;23.302;2023-04-10T00:05:46;95787.41;;;6.40;78.07
70072;BME280;57434;42.794;23.302;2023-04-10T00:06:47;95662.84;;;5.64;78.10
70072;BME280;57434;42.794;23.302;2023-04-10T00:07:49;95789.56;;;6.45;78.58
70072;BME280;57434;42.794;23.302;2023-04-10T00:08:51;95787.72;;;6.42;78.93
70072;BME280;57434;42.794;23.302;2023-04-10T00:09:52;95791.72;;;6.41;79.17
70072;BME280;57434;42.794;23.302;2023-04-10T00:10:54;95770.81;;;6.27;79.60
70072;BME280;57434;42.794;23.302;2023-04-10T00:11:56;95669.75;;;5.50;79.39
70072;BME280;57434;42.794;23.302;2023-04-10T00:12:58;95772.16;;;6.13;79.14
70072;BME280;57434;42.794;23.302;2023-04-10T00:13:59;95805.50;;;6.26;78.77
70072;BME280;57434;42.794;23.302;2023-04-10T00:15:01;95643.91;;;5.40;78.46
70072;BME280;57434;42.794;23.302;2023-04-10T00:16:03;95688.97;;;5.66;77.76
70072;BME280;57434;42.794;23.302;2023-04-10T00:17:05;95776.81;;;6.17;77.66
70072;BME280;57434;42.794;23.302;2023-04-10T00:18:07;95633.34;;;5.26;77.88
70072;BME280;57434;42.794;23.302;2023-04-10T00:19:09;95797.00;;;6.30;78.25
70072;BME280;57434;42.794;23.302;2023-04-10T00:20:11;95792.47;;;6.23;78.71
70072;BME280;57434;42.794;23.302;2023-04-10T00:21:13;95773.56;;;6.18;79.49
70072;BME280;57434;42.794;23.302;2023-04-10T00:22:14;95666.03;;;5.44;79.67
70072;BME280;57434;42.794;23.302;2023-04-10T00:23:16;95785.50;;;6.09;80.13
70072;BME280;57434;42.794;23.302;2023-04-10T00:24:18;95756.53;;;6.07;80.53
70072;BME280;57434;42.794;23.302;2023-04-10T00:25:20;95610.56;;;5.09;80.57
70072;BME280;57434;42.794;23.302;2023-04-10T00:26:21;95745.50;;;5.94;80.00
70072;BME280;57434;42.794;23.302;2023-04-10T00:27:23;95772.94;;;6.05;79.80
70072;BME280;57434;42.794;23.302;2023-04-10T00:28:25;95777.31;;;6.24;79.67
70072;BME280;57434;42.794;23.302;2023-04-10T00:29:26;95768.00;;;6.18;79.24
70072;BME280;57434;42.794;23.302;2023-04-10T00:30:28;95649.16;;;5.38;79.35
70072;BME280;57434;42.794;23.302;2023-04-10T00:31:30;95605.50;;;5.17;79.37
70072;BME280;57434;42.794;23.302;2023-04-10T00:32:32;95712.06;;;5.85;79.69
70072;BME280;57434;42.794;23.302;2023-04-10T00:33:33;95783.97;;;6.27;79.62
70072;BME280;57434;42.794;23.302;2023-04-10T00:34:35;95550.63;;;4.77;79.17
70072;BME280;57434;42.794;23.302;2023-04-10T00:35:37;95758.56;;;6.16;79.28
70072;BME280;57434;42.794;23.302;2023-04-10T00:36:38;95767.91;;;6.31;79.46
70072;BME280;57434;42.794;23.302;2023-04-10T00:37:40;95740.91;;;6.00;79.64
70072;BME280;57434;42.794;23.302;2023-04-10T00:38:42;95776.75;;;6.38;79.45
70072;BME280;57434;42.794;23.302;2023-04-10T00:39:44;95776.25;;;6.31;79.82
70072;BME280;57434;42.794;23.302;2023-04-10T00:40:46;95778.41;;;6.27;80.20
70072;BME280;57434;42.794;23.302;2023-04-10T00:41:47;95793.25;;;6.24;80.09
70072;BME280;57434;42.794;23.302;2023-04-10T00:42:49;95756.88;;;6.09;79.85
70072;BME280;57434;42.794;23.302;2023-04-10T00:43:55;95670.03;;;5.43;80.48
70072;BME280;57434;42.794;23.302;2023-04-10T00:44:58;95768.47;;;6.17;80.86
70072;BME280;57434;42.794;23.302;2023-04-10T00:46:00;95779.00;;;6.22;81.20
70072;BME280;57434;42.794;23.302;2023-04-10T00:47:03;95735.28;;;5.82;81.72
70072;BME280;57434;42.794;23.302;2023-04-10T00:48:05;95763.31;;;5.97;82.44
70072;BME280;57434;42.794;23.302;2023-04-10T00:49:07;95777.75;;;6.13;82.91
70072;BME280;57434;42.794;23.302;2023-04-10T00:50:09;95782.06;;;6.05;83.00
70072;BME280;57434;42.794;23.302;2023-04-10T00:51:11;95761.00;;;5.95;83.25
70072;BME280;57434;42.794;23.302;2023-04-10T00:52:12;95614.88;;;5.01;83.06
70072;BME280;57434;42.794;23.302;2023-04-10T00:53:15;95761.31;;;5.97;82.54
70072;BME280;57434;42.794;23.302;2023-04-10T00:54:17;95761.44;;;5.94;82.64
70072;BME280;57434;42.794;23.302;2023-04-10T00:55:18;95622.44;;;5.01;82.65
70072;BME280;57434;42.794;23.302;2023-04-10T00:56:22;95800.59;;;5.99;83.33
70072;BME280;57434;42.794;23.302;2023-04-10T00:57:24;95775.88;;;6.01;83.68
70072;BME280;57434;42.794;23.302;2023-04-10T00:58:26;95756.34;;;5.92;82.63
70072;BME280;57434;42.794;23.302;2023-04-10T00:59:28;95607.75;;;5.00;82.98
70072;BME280;57434;42.794;23.302;2023-04-10T01:00:30;95639.00;;;5.14;82.94
70072;BME280;57434;42.794;23.302;2023-04-10T01:01:32;95750.03;;;6.01;83.05
70072;BME280;57434;42.794;23.302;2023-04-10T01:02:33;95616.13;;;5.09;83.46
70072;BME280;57434;42.794;23.302;2023-04-10T01:03:38;95644.16;;;5.24;84.01
70072;BME280;57434;42.794;23.302;2023-04-10T01:04:40;95731.53;;;5.76;84.25
70072;BME280;57434;42.794;23.302;2023-04-10T01:09:43;95757.91;;;6.11;82.88
70072;BME280;57434;42.794;23.302;2023-04-10T01:13:21;95717.97;;;5.96;83.18
70072;BME280;57434;42.794;23.302;2023-04-10T01:14:41;95751.59;;;6.11;82.70
70072;BME280;57434;42.794;23.302;2023-04-10T01:15:58;95745.41;;;6.07;82.85
70072;BME280;57434;42.794;23.302;2023-04-10T01:17:39;95745.09;;;6.14;83.06
70072;BME280;57434;42.794;23.302;2023-04-10T01:18:49;95742.00;;;6.12;82.94
70072;BME280;57434;42.794;23.302;2023-04-10T01:20:08;95750.66;;;6.14;83.61
70072;BME280;57434;42.794;23.302;2023-04-10T01:21:11;95729.84;;;5.88;83.23
70072;BME280;57434;42.794;23.302;2023-04-10T01:22:16;95745.25;;;6.10;83.84
70072;BME280;57434;42.794;23.302;2023-04-10T01:23:48;95753.91;;;6.03;84.50
70072;BME280;57434;42.794;23.302;2023-04-10T01:25:10;95751.41;;;5.96;84.57
70072;BME280;57434;42.794;23.302;2023-04-10T01:28:04;95761.13;;;5.92;85.26
70072;BME280;57434;42.794;23.302;2023-04-10T01:29:09;95766.69;;;5.92;85.51
70072;BME280;57434;42.794;23.302;2023-04-10T01:30:17;95726.59;;;5.80;85.52
70072;BME280;57434;42.794;23.302;2023-04-10T01:31:33;95605.75;;;5.01;85.69
70072;BME280;57434;42.794;23.302;2023-04-10T01:32:36;95741.44;;;5.86;85.79
70072;BME280;57434;42.794;23.302;2023-04-10T01:33:49;95731.50;;;5.67;86.15
70072;BME280;57434;42.794;23.302;2023-04-10T01:34:54;95735.69;;;5.71;86.64
70072;BME280;57434;42.794;23.302;2023-04-10T01:36:01;95734.00;;;5.74;86.69
70072;BME280;57434;42.794;23.302;2023-04-10T01:37:07;95732.00;;;5.74;86.55
70072;BME280;57434;42.794;23.302;2023-04-10T01:38:15;95729.19;;;5.65;86.65
70072;BME280;57434;42.794;23.302;2023-04-10T01:39:19;95752.25;;;5.75;87.09
70072;BME280;57434;42.794;23.302;2023-04-10T01:40:23;95610.41;;;4.82;86.98
70072;BME280;57434;42.794;23.302;2023-04-10T01:41:27;95755.47;;;5.64;87.53
70072;BME280;57434;42.794;23.302;2023-04-10T01:42:31;95626.63;;;4.84;87.37
70072;BME280;57434;42.794;23.302;2023-04-10T01:43:35;95779.41;;;5.62;87.51
70072;BME280;57434;42.794;23.302;2023-04-10T01:44:45;95600.44;;;4.63;87.05
70072;BME280;57434;42.794;23.302;2023-04-10T01:45:48;95741.78;;;5.48;87.39
70072;BME280;57434;42.794;23.302;2023-04-10T01:46:53;95610.66;;;4.66;87.44
70072;BME280;57434;42.794;23.302;2023-04-10T01:47:55;95593.47;;;4.58;87.46
70072;BME280;57434;42.794;23.302;2023-04-10T01:48:59;95734.81;;;5.43;87.28
70072;BME280;57434;42.794;23.302;2023-04-10T01:50:03;95724.44;;;5.44;87.34
70072;BME280;57434;42.794;23.302;2023-04-10T01:51:07;95753.69;;;5.49;87.77
70072;BME280;57434;42.794;23.302;2023-04-10T01:52:10;95742.75;;;5.54;87.43
70072;BME280;57434;42.794;23.302;2023-04-10T01:53:13;95738.69;;;5.46;87.43
70072;BME280;57434;42.794;23.302;2023-04-10T01:54:16;95751.41;;;5.56;87.49
70072;BME280;57434;42.794;23.302;2023-04-10T01:55:22;95762.06;;;5.58;87.39
70072;BME280;57434;42.794;23.302;2023-04-10T01:56:25;95756.38;;;5.61;87.54
70072;BME280;57434;42.794;23.302;2023-04-10T01:57:29;95787.75;;;5.62;87.67
70072;BME280;57434;42.794;23.302;2023-04-10T01:58:30;95750.66;;;5.56;87.78
70072;BME280;57434;42.794;23.302;2023-04-10T01:59:32;95769.03;;;5.53;87.78
70072;BME280;57434;42.794;23.302;2023-04-10T02:00:38;95780.47;;;5.55;87.63
70072;BME280;57434;42.794;23.302;2023-04-10T02:01:40;95735.78;;;5.50;87.34
70072;BME280;57434;42.794;23.302;2023-04-10T02:02:42;95707.44;;;5.42;87.16
70072;BME280;57434;42.794;23.302;2023-04-10T02:03:45;95765.50;;;5.62;87.27
70072;BME280;57434;42.794;23.302;2023-04-10T02:04:48;95725.56;;;5.47;87.44
70072;BME280;57434;42.794;23.302;2023-04-10T02:06:17;95585.50;;;4.48;87.41
70072;BME280;57434;42.794;23.302;2023-04-10T02:07:49;95744.31;;;5.55;87.44
70072;BME280;57434;42.794;23.302;2023-04-10T02:09:22;95768.25;;;5.53;87.42
70072;BME280;57434;42.794;23.302;2023-04-10T02:10:34;95706.03;;;5.37;87.38
70072;BME280;57434;42.794;23.302;2023-04-10T02:11:46;95752.16;;;5.48;87.61
70072;BME280;57434;42.794;23.302;2023-04-10T02:12:51;95738.41;;;5.53;87.46
70072;BME280;57434;42.794;23.302;2023-04-10T02:13:55;95733.00;;;5.50;87.73
70072;BME280;57434;42.794;23.302;2023-04-10T02:15:02;95688.34;;;5.22;87.40
70072;BME280;57434;42.794;23.302;2023-04-10T02:16:06;95693.72;;;5.17;87.41
70072;BME280;57434;42.794;23.302;2023-04-10T02:17:09;95732.03;;;5.43;87.27
70072;BME280;57434;42.794;23.302;2023-04-10T02:18:16;95706.78;;;5.29;87.06
70072;BME280;57434;42.794;23.302;2023-04-10T02:19:19;95728.59;;;5.08;87.08
70072;BME280;57434;42.794;23.302;2023-04-10T02:20:23;95726.31;;;5.16;87.26
70072;BME280;57434;42.794;23.302;2023-04-10T02:21:26;95737.97;;;5.24;87.24
70072;BME280;57434;42.794;23.302;2023-04-10T02:22:27;95722.38;;;5.26;87.60
70072;BME280;57434;42.794;23.302;2023-04-10T02:23:29;95700.78;;;5.08;87.66
70072;BME280;57434;42.794;23.302;2023-04-10T02:24:32;95725.59;;;5.25;87.60
70072;BME280;57434;42.794;23.302;2023-04-10T02:25:35;95669.88;;;4.85;87.23
70072;BME280;57434;42.794;23.302;2023-04-10T02:26:44;95713.91;;;5.08;87.22
70072;BME280;57434;42.794;23.302;2023-04-10T02:27:46;95748.25;;;5.14;87.14
70072;BME280;57434;42.794;23.302;2023-04-10T02:28:47;95737.25;;;5.10;87.04
70072;BME280;57434;42.794;23.302;2023-04-10T02:29:49;95725.22;;;5.14;87.37
70072;BME280;57434;42.794;23.302;2023-04-10T02:30:51;95741.84;;;5.04;87.34
70072;BME280;57434;42.794;23.302;2023-04-10T02:31:53;95729.56;;;5.15;87.57
70072;BME280;57434;42.794;23.302;2023-04-10T02:32:54;95619.13;;;4.40;88.01
70072;BME280;57434;42.794;23.302;2023-04-10T02:33:56;95718.38;;;5.05;88.28
70072;BME280;57434;42.794;23.302;2023-04-10T02:34:58;95576.09;;;4.23;88.46
70072;BME280;57434;42.794;23.302;2023-04-10T02:36:00;95713.88;;;4.99;88.52
70072;BME280;57434;42.794;23.302;2023-04-10T02:37:02;95700.44;;;4.97;88.43
70072;BME280;57434;42.794;23.302;2023-04-10T02:38:04;95701.28;;;5.16;88.10
70072;BME280;57434;42.794;23.302;2023-04-10T02:39:05;95698.75;;;5.00;88.14
70072;BME280;57434;42.794;23.302;2023-04-10T02:40:08;95688.69;;;5.02;88.17
70072;BME280;57434;42.794;23.302;2023-04-10T02:41:10;95701.44;;;5.13;88.07
70072;BME280;57434;42.794;23.302;2023-04-10T02:42:11;95720.75;;;5.16;88.16
70072;BME280;57434;42.794;23.302;2023-04-10T02:43:13;95596.50;;;4.51;87.87
70072;BME280;57434;42.794;23.302;2023-04-10T02:44:15;95708.34;;;5.08;87.68
70072;BME280;57434;42.794;23.302;2023-04-10T02:45:16;95702.09;;;4.95;87.69
70072;BME280;57434;42.794;23.302;2023-04-10T02:46:18;95703.53;;;4.99;87.92
70072;BME280;57434;42.794;23.302;2023-04-10T02:47:20;95733.69;;;5.10;88.14
70072;BME280;57434;42.794;23.302;2023-04-10T02:48:22;95691.53;;;5.11;87.96
70072;BME280;57434;42.794;23.302;2023-04-10T02:49:23;95697.94;;;5.21;87.93
70072;BME280;57434;42.794;23.302;2023-04-10T02:50:25;95673.47;;;5.16;87.71
70072;BME280;57434;42.794;23.302;2023-04-10T02:51:27;95544.84;;;4.32;87.42
70072;BME280;57434;42.794;23.302;2023-04-10T02:52:28;95698.28;;;5.32;87.40
70072;BME280;57434;42.794;23.302;2023-04-10T02:53:32;95728.91;;;5.41;87.03
70072;BME280;57434;42.794;23.302;2023-04-10T02:54:33;95705.88;;;5.41;87.07
70072;BME280;57434;42.794;23.302;2023-04-10T02:55:35;95696.38;;;5.20;86.98
70072;BME280;57434;42.794;23.302;2023-04-10T02:56:37;95708.81;;;5.37;87.03
70072;BME280;57434;42.794;23.302;2023-04-10T02:57:40;95574.91;;;4.55;86.60
70072;BME280;57434;42.794;23.302;2023-04-10T02:58:41;95552.34;;;4.44;86.17
70072;BME280;57434;42.794;23.302;2023-04-10T02:59:43;95592.88;;;4.63;86.70
70072;BME280;57434;42.794;23.302;2023-04-10T03:00:49;95537.63;;;4.34;86.14
70072;BME280;57434;42.794;23.302;2023-04-10T03:01:51;95675.53;;;5.25;86.12
70072;BME280;57434;42.794;23.302;2023-04-10T03:02:52;95704.34;;;5.40;86.11
70072;BME280;57434;42.794;23.302;2023-04-10T03:03:54;95716.50;;;5.33;86.05
70072;BME280;57434;42.794;23.302;2023-04-10T03:04:57;95683.09;;;5.24;86.12
70072;BME280;57434;42.794;23.302;2023-04-10T03:05:59;95563.78;;;4.46;85.83
70072;BME280;57434;42.794;23.302;2023-04-10T03:07:00;95723.75;;;5.31;85.91
70072;BME280;57434;42.794;23.302;2023-04-10T03:08:02;95691.84;;;5.14;85.88
70072;BME280;57434;42.794;23.302;2023-04-10T03:09:04;95674.56;;;5.19;86.31
70072;BME280;57434;42.794;23.302;2023-04-10T03:10:06;95596.69;;;4.57;86.30
70072;BME280;57434;42.794;23.302;2023-04-10T03:11:08;95658.53;;;4.70;86.58
70072;BME280;57434;42.794;23.302;2023-04-10T03:12:09;95701.44;;;5.13;86.62
70072;BME280;57434;42.794;23.302;2023-04-10T03:13:11;95708.03;;;5.06;86.78
70072;BME280;57434;42.794;23.302;2023-04-10T03:14:13;95604.72;;;4.33;87.29
70072;BME280;57434;42.794;23.302;2023-04-10T03:15:14;95744.16;;;5.06;87.13
70072;BME280;57434;42.794;23.302;2023-04-10T03:16:16;95693.31;;;4.96;86.98
70072;BME280;57434;42.794;23.302;2023-04-10T03:17:18;95710.00;;;4.96;86.80
70072;BME280;57434;42.794;23.302;2023-04-10T03:18:19;95600.41;;;4.32;86.88
70072;BME280;57434;42.794;23.302;2023-04-10T03:19:21;95707.22;;;4.96;86.88
70072;BME280;57434;42.794;23.302;2023-04-10T03:20:23;95723.16;;;4.83;87.28
70072;BME280;57434;42.794;23.302;2023-04-10T03:21:25;95704.13;;;4.82;87.10
70072;BME280;57434;42.794;23.302;2023-04-10T03:22:26;95679.34;;;4.65;87.40
70072;BME280;57434;42.794;23.302;2023-04-10T03:23:28;95710.22;;;4.67;87.54
70072;BME280;57434;42.794;23.302;2023-04-10T03:24:30;95711.91;;;4.87;87.45
70072;BME280;57434;42.794;23.302;2023-04-10T03:25:34;95719.59;;;4.83;87.27
70072;BME280;57434;42.794;23.302;2023-04-10T03:26:36;95542.38;;;3.68;87.52
70072;BME280;57434;42.794;23.302;2023-04-10T03:27:38;95667.69;;;4.58;87.60
70072;BME280;57434;42.794;23.302;2023-04-10T03:28:40;95708.44;;;4.73;87.51
70072;BME280;57434;42.794;23.302;2023-04-10T03:29:41;95715.25;;;4.82;87.43
70072;BME280;57434;42.794;23.302;2023-04-10T03:30:43;95698.66;;;4.69;87.33
70072;BME280;57434;42.794;23.302;2023-04-10T03:31:45;95661.78;;;4.47;87.26
70072;BME280;57434;42.794;23.302;2023-04-10T03:32:46;95673.25;;;4.58;87.15
70072;BME280;57434;42.794;23.302;2023-04-10T03:33:48;95738.22;;;4.73;87.46
70072;BME280;57434;42.794;23.302;2023-04-10T03:34:50;95575.19;;;3.83;87.61
70072;BME280;57434;42.794;23.302;2023-04-10T03:35:52;95670.94;;;4.34;87.80
70072;BME280;57434;42.794;23.302;2023-04-10T03:36:53;95712.03;;;4.61;87.68
70072;BME280;57434;42.794;23.302;2023-04-10T03:37:55;95721.19;;;4.49;87.43
70072;BME280;57434;42.794;23.302;2023-04-10T03:38:57;95648.03;;;4.08;87.23
70072;BME280;57434;42.794;23.302;2023-04-10T03:39:59;95702.84;;;4.52;87.44
70072;BME280;57434;42.794;23.302;2023-04-10T03:41:00;95697.16;;;4.55;86.96
70072;BME280;57434;42.794;23.302;2023-04-10T03:42:02;95710.94;;;4.59;87.19
70072;BME280;57434;42.794;23.302;2023-04-10T03:43:04;95700.78;;;4.65;87.17
70072;BME280;57434;42.794;23.302;2023-04-10T03:44:05;95555.38;;;3.71;86.74
70072;BME280;57434;42.794;23.302;2023-04-10T03:45:08;95724.06;;;4.80;86.74
70072;BME280;57434;42.794;23.302;2023-04-10T03:46:10;95703.38;;;4.59;86.57
70072;BME280;57434;42.794;23.302;2023-04-10T03:47:11;95699.13;;;4.67;86.72
70072;BME280;57434;42.794;23.302;2023-04-10T03:48:13;95550.22;;;3.61;86.60
70072;BME280;57434;42.794;23.302;2023-04-10T03:49:15;95712.38;;;4.63;87.21
70072;BME280;57434;42.794;23.302;2023-04-10T03:50:17;95718.25;;;4.65;87.31
70072;BME280;57434;42.794;23.302;2023-04-10T03:51:19;95733.03;;;4.62;87.33
70072;BME280;57434;42.794;23.302;2023-04-10T03:52:20;95701.41;;;4.47;87.19
70072;BME280;57434;42.794;23.302;2023-04-10T03:53:23;95594.97;;;3.85;87.22
70072;BME280;57434;42.794;23.302;2023-04-10T03:54:25;95691.94;;;4.35;87.28
70072;BME280;57434;42.794;23.302;2023-04-10T03:55:26;95572.28;;;3.64;87.25
70072;BME280;57434;42.794;23.302;2023-04-10T03:56:28;95708.69;;;4.44;87.59
70072;BME280;57434;42.794;23.302;2023-04-10T03:57:30;95713.97;;;4.52;87.69
70072;BME280;57434;42.794;23.302;2023-04-10T03:58:31;95692.25;;;4.37;87.61
70072;BME280;57434;42.794;23.302;2023-04-10T03:59:33;95698.47;;;4.41;87.48
70072;BME280;57434;42.794;23.302;2023-04-10T04:00:39;95588.88;;;3.77;87.12
70072;BME280;57434;42.794;23.302;2023-04-10T04:01:41;95694.63;;;4.48;87.13
70072;BME280;57434;42.794;23.302;2023-04-10T04:02:42;95585.66;;;3.79;86.99
70072;BME280;57434;42.794;23.302;2023-04-10T04:03:44;95589.97;;;3.80;86.93
70072;BME280;57434;42.794;23.302;2023-04-10T04:04:46;95686.00;;;4.46;86.67
70072;BME280;57434;42.794;23.302;2023-04-10T04:05:49;95721.16;;;4.62;86.80
70072;BME280;57434;42.794;23.302;2023-04-10T04:06:51;95727.41;;;4.53;86.79
70072;BME280;57434;42.794;23.302;2023-04-10T04:07:53;95727.59;;;4.59;86.35
70072;BME280;57434;42.794;23.302;2023-04-10T04:08:54;95724.06;;;4.58;86.50
70072;BME280;57434;42.794;23.302;2023-04-10T04:09:56;95730.84;;;4.57;86.55
70072;BME280;57434;42.794;23.302;2023-04-10T04:10:58;95742.97;;;4.51;86.51
70072;BME280;57434;42.794;23.302;2023-04-10T04:11:59;95703.16;;;4.32;86.35
70072;BME280;57434;42.794;23.302;2023-04-10T04:13:01;95715.38;;;4.34;86.10
70072;BME280;57434;42.794;23.302;2023-04-10T04:14:03;95733.84;;;4.50;85.95
70072;BME280;57434;42.794;23.302;2023-04-10T04:15:05;95723.50;;;4.29;85.91
70072;BME280;57434;42.794;23.302;2023-04-10T04:16:08;95561.56;;;3.41;85.74
70072;BME280;57434;42.794;23.302;2023-04-10T04:17:10;95694.56;;;4.17;86.04
70072;BME280;57434;42.794;23.302;2023-04-10T04:18:12;95735.22;;;4.46;86.12
70072;BME280;57434;42.794;23.302;2023-04-10T04:19:13;95728.81;;;4.36;86.34
70072;BME280;57434;42.794;23.302;2023-04-10T04:20:15;95609.31;;;3.70;86.16
70072;BME280;57434;42.794;23.302;2023-04-10T04:21:17;95740.91;;;4.42;86.61
70072;BME280;57434;42.794;23.302;2023-04-10T04:22:19;95569.44;;;3.42;86.21
70072;BME280;57434;42.794;23.302;2023-04-10T04:23:21;95721.97;;;4.50;86.46
70072;BME280;57434;42.794;23.302;2023-04-10T04:24:22;95714.34;;;4.41;86.25
70072;BME280;57434;42.794;23.302;2023-04-10T04:25:24;95700.13;;;4.39;86.13
70072;BME280;57434;42.794;23.302;2023-04-10T04:26:26;95717.19;;;4.50;86.36
70072;BME280;57434;42.794;23.302;2023-04-10T04:27:28;95732.38;;;4.58;86.80
70072;BME280;57434;42.794;23.302;2023-04-10T04:28:29;95724.28;;;4.51;87.21
70072;BME280;57434;42.794;23.302;2023-04-10T04:29:31;95732.13;;;4.65;87.32
70072;BME280;57434;42.794;23.302;2023-04-10T04:30:33;95602.19;;;3.82;87.45
70072;BME280;57434;42.794;23.302;2023-04-10T04:31:34;95709.84;;;4.56;87.38
70072;BME280;57434;42.794;23.302;2023-04-10T04:32:36;95737.00;;;4.74;87.64
70072;BME280;57434;42.794;23.302;2023-04-10T04:33:38;95740.94;;;4.86;87.62
70072;BME280;57434;42.794;23.302;2023-04-10T04:34:40;95724.13;;;4.67;87.27
70072;BME280;57434;42.794;23.302;2023-04-10T04:35:41;95738.06;;;4.76;87.25
70072;BME280;57434;42.794;23.302;2023-04-10T04:36:43;95730.59;;;4.86;87.62
70072;BME280;57434;42.794;23.302;2023-04-10T04:37:45;95738.56;;;4.97;87.55
70072;BME280;57434;42.794;23.302;2023-04-10T04:38:46;95764.38;;;4.97;87.46
70072;BME280;57434;42.794;23.302;2023-04-10T04:39:48;95719.13;;;4.84;87.64
70072;BME280;57434;42.794;23.302;2023-04-10T04:40:50;95723.25;;;4.92;87.49
70072;BME280;57434;42.794;23.302;2023-04-10T04:41:52;95708.09;;;4.71;87.73
70072;BME280;57434;42.794;23.302;2023-04-10T04:42:53;95735.66;;;5.00;87.99
70072;BME280;57434;42.794;23.302;2023-04-10T04:43:55;95730.88;;;5.01;87.73
70072;BME280;57434;42.794;23.302;2023-04-10T04:44:57;95576.88;;;4.02;87.35
70072;BME280;57434;42.794;23.302;2023-04-10T04:45:58;95669.44;;;4.64;87.31
70072;BME280;57434;42.794;23.302;2023-04-10T04:47:00;95743.66;;;5.20;87.05
70072;BME280;57434;42.794;23.302;2023-04-10T04:48:02;95731.66;;;5.01;86.66
70072;BME280;57434;42.794;23.302;2023-04-10T04:49:04;95751.16;;;5.10;86.21
70072;BME280;57434;42.794;23.302;2023-04-10T04:50:06;95741.09;;;5.35;85.77
70072;BME280;57434;42.794;23.302;2023-04-10T04:51:08;95723.72;;;5.22;85.62
70072;BME280;57434;42.794;23.302;2023-04-10T04:52:10;95749.56;;;5.31;85.77
70072;BME280;57434;42.794;23.302;2023-04-10T04:53:12;95749.63;;;5.40;85.65
70072;BME280;57434;42.794;23.302;2023-04-10T04:54:14;95738.00;;;5.33;85.21
70072;BME280;57434;42.794;23.302;2023-04-10T04:55:15;95728.25;;;5.28;85.13
70072;BME280;57434;42.794;23.302;2023-04-10T04:56:17;95593.94;;;4.35;85.11
70072;BME280;57434;42.794;23.302;2023-04-10T04:57:19;95617.00;;;4.44;85.49
70072;BME280;57434;42.794;23.302;2023-04-10T04:58:21;95741.97;;;5.23;86.03
70072;BME280;57434;42.794;23.302;2023-04-10T04:59:23;95574.56;;;4.22;85.94
70072;BME280;57434;42.794;23.302;2023-04-10T05:00:25;95605.91;;;4.44;85.67
70072;BME280;57434;42.794;23.302;2023-04-10T05:01:26;95746.56;;;5.48;85.43
70072;BME280;57434;42.794;23.302;2023-04-10T05:02:28;95765.91;;;5.51;84.93
70072;BME280;57434;42.794;23.302;2023-04-10T05:03:30;95735.66;;;5.31;85.16
70072;BME280;57434;42.794;23.302;2023-04-10T05:04:32;95767.03;;;5.54;85.12
70072;BME280;57434;42.794;23.302;2023-04-10T05:05:33;95747.69;;;5.59;85.16
70072;BME280;57434;42.794;23.302;2023-04-10T05:06:35;95739.13;;;5.44;85.04
70072;BME280;57434;42.794;23.302;2023-04-10T05:07:37;95760.56;;;5.66;85.12
70072;BME280;57434;42.794;23.302;2023-04-10T05:08:39;95737.06;;;5.67;84.89
70072;BME280;57434;42.794;23.302;2023-04-10T05:09:40;95757.09;;;5.84;84.88
70072;BME280;57434;42.794;23.302;2023-04-10T05:10:42;95764.03;;;5.88;84.84
70072;BME280;57434;42.794;23.302;2023-04-10T05:11:44;95703.63;;;5.58;84.34
70072;BME280;57434;42.794;23.302;2023-04-10T05:12:45;95735.44;;;5.88;84.21
70072;BME280;57434;42.794;23.302;2023-04-10T05:13:47;95753.41;;;5.96;84.57
70072;BME280;57434;42.794;23.302;2023-04-10T05:14:49;95749.56;;;6.02;84.29
70072;BME280;57434;42.794;23.302;2023-04-10T05:15:50;95731.25;;;5.83;84.24
70072;BME280;57434;42.794;23.302;2023-04-10T05:16:52;95720.91;;;5.84;84.16
70072;BME280;57434;42.794;23.302;2023-04-10T05:17:54;95749.25;;;6.00;84.25
70072;BME280;57434;42.794;23.302;2023-04-10T05:18:56;95621.59;;;5.22;83.92
70072;BME280;57434;42.794;23.302;2023-04-10T05:19:58;95624.41;;;5.31;83.85
70072;BME280;57434;42.794;23.302;2023-04-10T05:21:00;95741.22;;;6.02;84.74
70072;BME280;57434;42.794;23.302;2023-04-10T05:22:02;95589.84;;;5.01;84.96
70072;BME280;57434;42.794;23.302;2023-04-10T05:23:03;95748.91;;;5.89;85.17
70072;BME280;57434;42.794;23.302;2023-04-10T05:24:05;95711.78;;;5.83;85.59
70072;BME280;57434;42.794;23.302;2023-04-10T05:25:07;95620.25;;;5.36;85.31
70072;BME280;57434;42.794;23.302;2023-04-10T05:26:09;95584.63;;;5.13;85.10
70072;BME280;57434;42.794;23.302;2023-04-10T05:27:10;95743.41;;;6.26;85.12
70072;BME280;57434;42.794;23.302;2023-04-10T05:28:12;95740.47;;;6.20;84.93
70072;BME280;57434;42.794;23.302;2023-04-10T05:29:14;95756.72;;;6.22;84.59
70072;BME280;57434;42.794;23.302;2023-04-10T05:30:16;95614.25;;;5.47;84.25
70072;BME280;57434;42.794;23.302;2023-04-10T05:31:17;95747.31;;;6.37;84.29
70072;BME280;57434;42.794;23.302;2023-04-10T05:32:19;95602.66;;;5.48;84.25
70072;BME280;57434;42.794;23.302;2023-04-10T05:33:21;95754.44;;;6.57;84.27
70072;BME280;57434;42.794;23.302;2023-04-10T05:34:23;95743.16;;;6.60;83.96
70072;BME280;57434;42.794;23.302;2023-04-10T05:35:24;95631.03;;;5.92;83.65
70072;BME280;57434;42.794;23.302;2023-04-10T05:36:26;95738.50;;;6.66;83.44
70072;BME280;57434;42.794;23.302;2023-04-10T05:37:28;95723.94;;;6.53;83.04
70072;BME280;57434;42.794;23.302;2023-04-10T05:38:29;95742.22;;;6.72;82.61
70072;BME280;57434;42.794;23.302;2023-04-10T05:39:31;95759.88;;;6.78;82.78
70072;BME280;57434;42.794;23.302;2023-04-10T05:40:33;95619.75;;;5.96;82.18
70072;BME280;57434;42.794;23.302;2023-04-10T05:41:34;95743.47;;;6.80;82.02
70072;BME280;57434;42.794;23.302;2023-04-10T05:42:36;95770.88;;;6.82;81.82